createdAt,value
2022-11-10T00:02:10.075Z,11.90
2022-11-10T00:04:37.998Z,11.90
2022-11-10T00:07:05.892Z,11.90
2022-11-10T00:09:33.848Z,11.90
2022-11-10T00:12:02.998Z,11.90
2022-11-10T00:14:48.211Z,11.90
2022-11-10T00:17:16.033Z,11.90
2022-11-10T00:19:43.975Z,11.90
2022-11-10T00:22:11.775Z,11.90
2022-11-10T00:24:39.596Z,11.80
2022-11-10T00:27:08.749Z,11.90
2022-11-10T00:29:36.557Z,11.90
2022-11-10T00:32:04.462Z,11.90
2022-11-10T00:34:32.273Z,11.90
2022-11-10T00:37:00.183Z,11.90
2022-11-10T00:39:28.027Z,11.90
2022-11-10T00:41:56.113Z,11.90
2022-11-10T00:44:25.304Z,11.90
2022-11-10T00:46:53.099Z,11.90
2022-11-10T00:49:20.949Z,11.90
2022-11-10T00:51:48.771Z,11.90
2022-11-10T00:54:16.675Z,11.80
2022-11-10T00:56:44.490Z,11.90
2022-11-10T00:59:12.640Z,11.90
2022-11-10T01:01:41.783Z,11.80
2022-11-10T01:04:09.704Z,11.90
2022-11-10T01:06:37.544Z,11.80
2022-11-10T01:09:05.595Z,11.90
2022-11-10T01:11:33.404Z,11.80
2022-11-10T01:14:01.231Z,11.90
2022-11-10T01:16:31.147Z,11.90
2022-11-10T01:19:03.564Z,11.90
2022-11-10T01:21:31.971Z,11.90
2022-11-10T01:24:00.196Z,11.90
2022-11-10T01:26:28.006Z,11.90
2022-11-10T01:28:55.833Z,11.90
2022-11-10T01:31:23.809Z,11.80
2022-11-10T01:33:51.638Z,11.80
2022-11-10T01:36:20.870Z,11.80
2022-11-10T01:38:48.711Z,11.80
2022-11-10T01:41:16.674Z,11.90
2022-11-10T01:43:44.576Z,11.90
2022-11-10T01:46:14.219Z,11.90
2022-11-10T01:48:45.519Z,11.90
2022-11-10T01:51:19.351Z,11.90
2022-11-10T01:53:51.694Z,11.90
2022-11-10T01:56:19.719Z,13.60
2022-11-10T01:58:54.876Z,11.90
2022-11-10T02:01:23.428Z,11.80
2022-11-10T02:03:53.470Z,11.80
2022-11-10T02:06:25.600Z,11.90
2022-11-10T02:08:55.686Z,11.90
2022-11-10T02:11:24.342Z,11.90
2022-11-10T02:13:52.970Z,11.90
2022-11-10T02:16:20.826Z,11.90
2022-11-10T02:18:48.977Z,11.90
2022-11-10T02:21:19.688Z,11.90
2022-11-10T02:23:50.489Z,11.80
2022-11-10T02:26:22.968Z,11.90
2022-11-10T02:28:51.025Z,11.90
2022-11-10T02:31:18.856Z,11.90
2022-11-10T02:33:46.662Z,11.90
2022-11-10T02:36:14.775Z,11.90
2022-11-10T02:38:43.932Z,11.90
2022-11-10T02:41:11.771Z,11.90
2022-11-10T02:43:40.227Z,11.90
2022-11-10T02:46:08.375Z,11.90
2022-11-10T02:48:36.281Z,11.90
2022-11-10T02:51:04.251Z,11.90
2022-11-10T02:53:32.048Z,11.90
2022-11-10T02:56:01.213Z,11.90
2022-11-10T02:58:29.024Z,11.80
2022-11-10T03:00:56.976Z,11.80
2022-11-10T03:03:25.221Z,11.80
2022-11-10T03:05:53.156Z,11.70
2022-11-10T03:08:20.991Z,11.70
2022-11-10T03:10:48.992Z,11.70
2022-11-10T03:13:18.197Z,11.60
2022-11-10T03:15:48.439Z,11.60
2022-11-10T03:18:16.284Z,11.60
2022-11-10T03:20:44.200Z,11.60
2022-11-10T03:23:12.008Z,11.60
2022-11-10T03:25:39.834Z,11.60
2022-11-10T03:28:07.670Z,11.60
2022-11-10T03:30:36.912Z,11.50
2022-11-10T03:33:05.187Z,11.60
2022-11-10T03:35:33.074Z,11.60
2022-11-10T03:38:00.896Z,11.50
2022-11-10T03:40:28.831Z,11.50
2022-11-10T03:42:56.652Z,11.50
2022-11-10T03:45:24.518Z,11.50
2022-11-10T03:47:53.648Z,11.50
2022-11-10T03:50:21.563Z,11.50
2022-11-10T03:52:49.387Z,11.50
2022-11-10T03:55:19.267Z,11.50
2022-11-10T03:57:47.059Z,11.50
2022-11-10T04:00:16.033Z,11.50
2022-11-10T04:02:43.833Z,11.50
2022-11-10T04:05:30.278Z,11.50
2022-11-10T04:08:25.545Z,11.50
2022-11-10T04:10:53.417Z,11.50
2022-11-10T04:13:39.089Z,11.50
2022-11-10T04:16:06.952Z,11.50
2022-11-10T04:18:34.940Z,11.50
2022-11-10T04:21:04.687Z,11.50
2022-11-10T04:23:36.086Z,11.50
2022-11-10T04:26:23.818Z,11.50
2022-11-10T04:28:53.481Z,11.50
2022-11-10T04:31:23.224Z,11.50
2022-11-10T04:33:51.821Z,11.50
2022-11-10T04:36:22.485Z,11.50
2022-11-10T04:38:50.379Z,11.60
2022-11-10T04:41:18.892Z,11.50
2022-11-10T04:43:46.723Z,11.50
2022-11-10T04:46:23.304Z,11.50
2022-11-10T04:48:52.011Z,11.50
2022-11-10T04:51:23.145Z,11.50
2022-11-10T04:53:50.994Z,11.50
2022-11-10T04:56:20.242Z,11.40
2022-11-10T04:58:48.407Z,11.40
2022-11-10T05:01:17.979Z,11.40
2022-11-10T05:03:46.912Z,11.40
2022-11-10T05:06:15.576Z,11.50
2022-11-10T05:08:45.139Z,11.40
2022-11-10T05:11:13.818Z,11.50
2022-11-10T05:13:42.155Z,11.40
2022-11-10T05:16:10.439Z,11.40
2022-11-10T05:18:38.440Z,11.40
2022-11-10T05:21:06.528Z,11.40
2022-11-10T05:23:41.488Z,11.40
2022-11-10T05:26:12.975Z,11.40
2022-11-10T05:28:41.600Z,11.40
2022-11-10T05:31:10.148Z,11.40
2022-11-10T05:33:38.738Z,11.40
2022-11-10T05:36:08.034Z,11.40
2022-11-10T05:38:40.464Z,11.40
2022-11-10T05:41:12.711Z,11.40
2022-11-10T05:43:40.535Z,11.40
2022-11-10T05:46:08.360Z,11.40
2022-11-10T05:48:36.247Z,11.50
2022-11-10T05:51:04.226Z,11.40
2022-11-10T05:53:32.098Z,11.40
2022-11-10T05:55:59.932Z,11.40
2022-11-10T05:58:29.263Z,11.40
2022-11-10T06:00:57.205Z,11.40
2022-11-10T06:03:25.916Z,11.40
2022-11-10T06:05:54.307Z,11.40
2022-11-10T06:08:22.147Z,11.40
2022-11-10T06:10:50.025Z,11.40
2022-11-10T06:13:17.876Z,11.30
2022-11-10T06:15:50.395Z,11.40
2022-11-10T06:18:18.807Z,11.40
2022-11-10T06:20:47.528Z,11.40
2022-11-10T06:23:15.812Z,11.30
2022-11-10T06:25:44.742Z,11.30
2022-11-10T06:28:14.608Z,11.30
2022-11-10T06:30:42.659Z,11.30
2022-11-10T06:33:11.819Z,11.30
2022-11-10T06:35:39.748Z,11.30
2022-11-10T06:38:10.178Z,11.30
2022-11-10T06:40:38.117Z,11.30
2022-11-10T06:43:06.021Z,11.30
2022-11-10T06:45:33.857Z,11.30
2022-11-10T06:48:02.782Z,11.30
2022-11-10T06:50:32.211Z,11.30
2022-11-10T06:53:01.219Z,11.30
2022-11-10T06:55:29.911Z,11.30
2022-11-10T06:57:58.042Z,11.30
2022-11-10T07:00:26.672Z,11.30
2022-11-10T07:03:05.447Z,11.30
2022-11-10T07:05:36.738Z,11.30
2022-11-10T07:08:05.269Z,11.30
2022-11-10T07:10:33.934Z,11.30
2022-11-10T07:13:03.252Z,11.20
2022-11-10T07:15:31.890Z,11.20
2022-11-10T07:17:59.740Z,11.20
2022-11-10T07:20:28.403Z,11.20
2022-11-10T07:23:00.502Z,11.20
2022-11-10T07:25:29.494Z,11.20
2022-11-10T07:27:58.058Z,11.20
2022-11-10T07:30:26.617Z,11.20
2022-11-10T07:33:02.017Z,11.20
2022-11-10T07:35:30.791Z,11.20
2022-11-10T07:38:03.157Z,11.20
2022-11-10T07:40:31.355Z,11.30
2022-11-10T07:42:59.209Z,11.30
2022-11-10T07:45:27.370Z,11.20
2022-11-10T07:48:00.447Z,11.40
2022-11-10T07:50:28.361Z,11.40
2022-11-10T07:53:05.865Z,11.40
2022-11-10T07:55:33.977Z,11.40
2022-11-10T07:58:01.862Z,11.40
2022-11-10T08:00:30.515Z,11.40
2022-11-10T08:03:03.188Z,11.40
2022-11-10T08:05:31.445Z,11.30
2022-11-10T08:08:00.066Z,11.50
2022-11-10T08:10:30.113Z,11.50
2022-11-10T08:12:59.440Z,11.50
2022-11-10T08:15:28.709Z,11.50
2022-11-10T08:18:00.668Z,11.60
2022-11-10T08:20:28.883Z,11.50
2022-11-10T08:23:00.943Z,11.60
2022-11-10T08:25:34.735Z,11.60
2022-11-10T08:28:05.228Z,11.60
2022-11-10T08:30:34.255Z,11.50
2022-11-10T08:33:04.813Z,11.50
2022-11-10T08:35:35.214Z,11.60
2022-11-10T08:38:09.767Z,11.60
2022-11-10T08:40:39.986Z,11.60
2022-11-10T08:43:08.729Z,11.60
2022-11-10T08:45:37.179Z,11.60
2022-11-10T08:48:06.532Z,11.70
2022-11-10T08:50:34.872Z,11.60
2022-11-10T08:53:03.528Z,11.70
2022-11-10T08:55:31.451Z,11.60
2022-11-10T08:58:01.639Z,11.70
2022-11-10T09:00:30.034Z,11.90
2022-11-10T09:02:58.337Z,11.80
2022-11-10T09:05:26.165Z,11.70
2022-11-10T09:07:54.004Z,11.70
2022-11-10T09:10:21.912Z,11.70
2022-11-10T09:12:49.799Z,11.70
2022-11-10T09:15:19.823Z,11.80
2022-11-10T09:17:47.748Z,11.70
2022-11-10T09:20:15.679Z,11.70
2022-11-10T09:22:43.596Z,11.70
2022-11-10T09:25:11.672Z,11.70
2022-11-10T09:27:40.004Z,11.80
2022-11-10T09:30:13.062Z,13.00
2022-11-10T09:32:47.096Z,11.90
2022-11-10T09:35:14.943Z,11.80
2022-11-10T09:37:42.760Z,12.10
2022-11-10T09:40:17.353Z,12.10
2022-11-10T09:42:46.029Z,12.10
2022-11-10T09:45:23.658Z,12.30
2022-11-10T09:47:59.456Z,12.10
2022-11-10T09:50:35.657Z,12.10
2022-11-10T09:53:04.026Z,12.10
2022-11-10T09:55:38.544Z,12.10
2022-11-10T09:58:06.374Z,12.40
2022-11-10T10:00:36.652Z,12.00
2022-11-10T10:03:08.040Z,12.00
2022-11-10T10:05:48.634Z,12.00
2022-11-10T10:08:23.649Z,12.10
2022-11-10T10:11:01.728Z,12.10
2022-11-10T10:13:48.332Z,12.20
2022-11-10T10:16:21.551Z,12.20
2022-11-10T10:19:00.079Z,12.20
2022-11-10T10:21:47.661Z,12.20
2022-11-10T10:24:22.140Z,12.30
2022-11-10T10:26:53.621Z,12.30
2022-11-10T10:29:24.111Z,12.40
2022-11-10T10:31:53.296Z,12.30
2022-11-10T10:34:26.184Z,12.40
2022-11-10T10:36:54.206Z,12.50
2022-11-10T10:39:30.235Z,12.70
2022-11-10T10:41:58.488Z,12.80
2022-11-10T10:44:26.702Z,12.60
2022-11-10T10:46:58.852Z,12.60
2022-11-10T10:49:30.577Z,12.60
2022-11-10T10:52:06.394Z,12.50
2022-11-10T10:54:35.963Z,12.50
2022-11-10T10:57:07.313Z,12.50
2022-11-10T10:59:35.644Z,12.90
2022-11-10T11:02:03.505Z,12.50
2022-11-10T11:04:35.363Z,12.50
2022-11-10T11:07:05.182Z,12.50
2022-11-10T11:09:41.590Z,12.50
2022-11-10T11:12:12.382Z,12.50
2022-11-10T11:14:45.626Z,12.50
2022-11-10T11:17:19.026Z,12.50
2022-11-10T11:19:58.521Z,12.50
2022-11-10T11:22:46.904Z,12.50
2022-11-10T11:25:25.727Z,12.60
2022-11-10T11:28:06.438Z,12.60
2022-11-10T11:30:48.084Z,12.60
2022-11-10T11:33:41.372Z,12.70
2022-11-10T11:36:23.885Z,12.60
2022-11-10T11:38:54.577Z,12.60
2022-11-10T11:41:34.379Z,12.60
2022-11-10T11:44:19.391Z,12.50
2022-11-10T11:46:53.807Z,12.50
2022-11-10T11:49:39.562Z,12.70
2022-11-10T11:52:18.551Z,12.50
2022-11-10T11:55:04.131Z,12.50
2022-11-10T11:57:44.065Z,12.60
2022-11-10T12:00:15.712Z,12.60
2022-11-10T12:03:01.587Z,12.70
2022-11-10T12:05:38.331Z,12.70
2022-11-10T12:08:17.575Z,12.80
2022-11-10T12:10:52.460Z,12.90
2022-11-10T12:13:32.901Z,13.10
2022-11-10T12:16:05.844Z,13.10
2022-11-10T12:18:37.587Z,13.30
2022-11-10T12:21:25.547Z,13.50
2022-11-10T12:24:13.663Z,13.80
2022-11-10T12:26:47.820Z,13.80
2022-11-10T12:29:24.859Z,13.80
2022-11-10T12:31:56.441Z,13.70
2022-11-10T12:34:33.096Z,13.60
2022-11-10T12:37:05.008Z,13.40
2022-11-10T12:39:42.414Z,13.40
2022-11-10T12:42:16.713Z,13.90
2022-11-10T12:44:57.609Z,14.30
2022-11-10T12:47:29.499Z,15.00
2022-11-10T12:50:05.579Z,15.50
2022-11-10T12:52:37.056Z,15.90
2022-11-10T12:55:06.788Z,16.40
2022-11-10T12:57:35.161Z,16.20
2022-11-10T13:00:05.746Z,16.30
2022-11-10T13:02:36.169Z,16.60
2022-11-10T13:05:29.925Z,16.70
2022-11-10T13:08:27.181Z,16.40
2022-11-10T13:11:03.555Z,16.50
2022-11-10T13:13:40.736Z,16.40
2022-11-10T13:16:10.287Z,16.40
2022-11-10T13:18:59.268Z,16.30
2022-11-10T13:22:05.264Z,16.10
2022-11-10T13:24:33.995Z,15.90
2022-11-10T13:27:04.433Z,15.70
2022-11-10T13:29:53.740Z,15.50
2022-11-10T13:32:30.390Z,15.50
2022-11-10T13:35:31.488Z,15.70
2022-11-10T13:37:59.386Z,15.80
2022-11-10T13:40:35.287Z,15.80
2022-11-10T13:43:34.747Z,15.90
2022-11-10T13:46:06.621Z,15.80
2022-11-10T13:49:00.842Z,15.90
2022-11-10T13:51:44.583Z,15.80
2022-11-10T13:54:33.305Z,15.80
2022-11-10T13:57:13.049Z,15.70
2022-11-10T13:59:52.895Z,15.70
2022-11-10T14:03:01.259Z,15.70
2022-11-10T14:06:07.400Z,15.60
2022-11-10T14:08:49.443Z,15.60
2022-11-10T14:11:25.082Z,15.50
2022-11-10T14:14:00.122Z,15.50
2022-11-10T14:16:32.659Z,15.40
2022-11-10T14:19:05.360Z,15.40
2022-11-10T14:21:44.924Z,15.40
2022-11-10T14:24:17.677Z,15.50
2022-11-10T14:26:50.591Z,15.30
2022-11-10T14:29:30.760Z,15.40
2022-11-10T14:32:02.919Z,15.30
2022-11-10T14:34:31.177Z,15.30
2022-11-10T14:37:01.159Z,15.20
2022-11-10T14:39:32.850Z,15.20
2022-11-10T14:42:03.391Z,15.30
2022-11-10T14:44:32.480Z,15.30
2022-11-10T14:47:16.859Z,15.20
2022-11-10T14:49:44.875Z,15.30
2022-11-10T14:52:14.993Z,15.20
2022-11-10T14:54:47.030Z,15.00
2022-11-10T14:57:19.798Z,15.10
2022-11-10T14:59:47.910Z,14.90
2022-11-10T15:02:19.684Z,14.90
2022-11-10T15:04:51.093Z,14.80
2022-11-10T15:07:19.665Z,14.80
2022-11-10T15:10:05.752Z,14.70
2022-11-10T15:12:35.882Z,14.50
2022-11-10T15:15:21.444Z,14.50
2022-11-10T15:17:52.251Z,14.30
2022-11-10T15:20:38.225Z,14.30
2022-11-10T15:23:15.124Z,14.10
2022-11-10T15:25:42.990Z,13.90
2022-11-10T15:28:25.813Z,14.00
2022-11-10T15:30:56.389Z,13.90
2022-11-10T15:33:32.826Z,13.80
2022-11-10T15:36:16.130Z,13.60
2022-11-10T15:38:44.821Z,13.70
2022-11-10T15:41:15.256Z,13.60
2022-11-10T15:43:43.427Z,13.60
2022-11-10T15:46:18.156Z,13.50
2022-11-10T15:48:50.470Z,13.50
2022-11-10T15:51:25.965Z,13.40
2022-11-10T15:53:55.508Z,13.30
2022-11-10T15:56:25.674Z,14.60
2022-11-10T15:59:00.688Z,13.20
2022-11-10T16:01:32.864Z,13.70
2022-11-10T16:04:02.468Z,13.10
2022-11-10T16:07:07.801Z,13.00
2022-11-10T16:13:18.280Z,12.90
2022-11-10T16:15:46.493Z,12.90
2022-11-10T16:18:19.650Z,12.90
2022-11-10T16:20:49.207Z,12.80
2022-11-10T16:23:17.636Z,13.20
2022-11-10T16:25:46.175Z,12.70
2022-11-10T16:28:18.567Z,12.60
2022-11-10T16:30:46.858Z,12.70
2022-11-10T16:33:24.838Z,12.60
2022-11-10T16:36:05.511Z,12.60
2022-11-10T16:38:36.714Z,12.50
2022-11-10T16:41:05.258Z,12.50
2022-11-10T16:43:33.365Z,12.50
2022-11-10T16:46:08.389Z,12.50
2022-11-10T16:48:44.972Z,12.70
2022-11-10T16:51:14.497Z,12.40
2022-11-10T16:53:43.088Z,12.40
2022-11-10T16:56:15.109Z,13.90
2022-11-10T16:58:43.018Z,12.50
2022-11-10T17:01:17.562Z,12.70
2022-11-10T17:03:49.206Z,12.80
2022-11-10T17:06:19.725Z,12.30
2022-11-10T17:08:50.202Z,12.20
2022-11-10T17:11:18.197Z,12.20
2022-11-10T17:13:46.088Z,12.60
2022-11-10T17:16:22.788Z,12.10
2022-11-10T17:18:51.842Z,13.70
2022-11-10T17:21:22.564Z,12.20
2022-11-10T17:23:51.237Z,13.40
2022-11-10T17:26:21.276Z,13.10
2022-11-10T17:28:49.329Z,12.00
2022-11-10T17:31:17.214Z,12.00
2022-11-10T17:33:45.869Z,12.60
2022-11-10T17:36:15.955Z,11.90
2022-11-10T17:38:45.691Z,11.90
2022-11-10T17:41:16.772Z,11.90
2022-11-10T17:43:45.982Z,11.80
2022-11-10T17:46:14.428Z,11.80
2022-11-10T17:48:42.322Z,12.20
2022-11-10T17:51:12.991Z,11.70
2022-11-10T17:53:40.924Z,11.70
2022-11-10T17:56:10.361Z,11.90
2022-11-10T17:58:38.262Z,11.50
2022-11-10T18:01:13.680Z,11.70
2022-11-10T18:03:41.700Z,11.60
2022-11-10T18:06:13.555Z,11.60
2022-11-10T18:08:41.673Z,11.60
2022-11-10T18:11:12.158Z,11.60
2022-11-10T18:13:41.262Z,11.60
2022-11-10T18:16:10.508Z,11.40
2022-11-10T18:18:43.664Z,11.50
2022-11-10T18:21:12.126Z,11.50
2022-11-10T18:23:40.011Z,11.00
2022-11-10T18:26:11.564Z,11.40
2022-11-10T18:28:45.016Z,11.50
2022-11-10T18:31:17.614Z,11.40
2022-11-10T18:33:45.592Z,11.40
2022-11-10T18:36:13.441Z,11.10
2022-11-10T18:38:41.313Z,11.30
2022-11-10T18:41:26.923Z,11.30
2022-11-10T18:44:01.318Z,11.30
2022-11-10T18:46:29.183Z,11.90
2022-11-10T18:49:00.024Z,11.00
2022-11-10T18:51:28.263Z,11.20
2022-11-10T18:53:56.728Z,11.20
2022-11-10T18:56:25.241Z,11.20
2022-11-10T18:58:56.652Z,11.20
2022-11-10T19:01:27.315Z,11.10
2022-11-10T19:03:55.652Z,11.10
2022-11-10T19:06:26.608Z,11.10
2022-11-10T19:08:56.503Z,11.10
2022-11-10T19:11:24.546Z,11.10
2022-11-10T19:13:52.438Z,12.80
2022-11-10T19:16:23.476Z,11.10
2022-11-10T19:18:52.713Z,11.10
2022-11-10T19:21:22.719Z,11.10
2022-11-10T19:24:01.470Z,11.00
2022-11-10T19:26:31.287Z,11.00
2022-11-10T19:29:06.935Z,11.10
2022-11-10T19:31:36.739Z,12.30
2022-11-10T19:34:05.998Z,11.00
2022-11-10T19:36:33.882Z,11.00
2022-11-10T19:39:01.917Z,11.00
2022-11-10T19:41:32.598Z,11.00
2022-11-10T19:44:00.592Z,11.30
2022-11-10T19:46:33.039Z,10.90
2022-11-10T19:49:01.201Z,10.40
2022-11-10T19:51:30.482Z,11.00
2022-11-10T19:54:01.380Z,10.90
2022-11-10T19:56:32.075Z,10.80
2022-11-10T19:59:01.066Z,10.90
2022-11-10T20:01:29.355Z,10.80
2022-11-10T20:03:57.313Z,10.80
2022-11-10T20:06:25.532Z,10.80
2022-11-10T20:08:55.767Z,10.80
2022-11-10T20:11:55.224Z,10.80
2022-11-10T20:14:26.840Z,10.70
2022-11-10T20:16:58.653Z,10.70
2022-11-10T20:19:26.637Z,10.70
2022-11-10T20:21:54.486Z,11.00
2022-11-10T20:24:23.800Z,12.10
2022-11-10T20:26:51.682Z,10.70
2022-11-10T20:29:19.623Z,11.10
2022-11-10T20:31:52.258Z,10.60
2022-11-10T20:34:20.171Z,10.60
2022-11-10T20:36:48.259Z,10.60
2022-11-10T20:39:17.678Z,10.50
2022-11-10T20:41:47.157Z,10.50
2022-11-10T20:44:15.141Z,10.50
2022-11-10T20:46:58.640Z,10.30
2022-11-10T20:49:26.821Z,10.40
2022-11-10T20:51:59.570Z,10.40
2022-11-10T20:54:27.753Z,10.40
2022-11-10T20:56:56.939Z,10.40
2022-11-10T20:59:24.842Z,10.40
2022-11-10T21:01:55.649Z,10.40
2022-11-10T21:04:26.367Z,10.40
2022-11-10T21:06:54.313Z,10.30
2022-11-10T21:09:22.290Z,10.30
2022-11-10T21:12:08.101Z,10.90
2022-11-10T21:14:37.323Z,10.30
2022-11-10T21:17:05.635Z,10.90
2022-11-10T21:19:34.391Z,10.30
2022-11-10T21:22:02.957Z,10.20
2022-11-10T21:24:30.920Z,10.20
2022-11-10T21:26:59.318Z,10.20
2022-11-10T21:29:27.140Z,10.20
2022-11-10T21:31:56.376Z,10.20
2022-11-10T21:34:24.228Z,11.90
2022-11-10T21:36:52.050Z,10.50
2022-11-10T21:39:19.949Z,10.20
2022-11-10T21:41:47.780Z,11.50
2022-11-10T21:44:15.643Z,10.10
2022-11-10T21:46:43.463Z,10.40
2022-11-10T21:49:12.659Z,10.80
2022-11-10T21:51:40.737Z,10.10
2022-11-10T21:54:12.151Z,10.20
2022-11-10T21:56:40.076Z,10.20
2022-11-10T21:59:07.930Z,10.20
2022-11-10T22:01:35.809Z,10.10
2022-11-10T22:04:03.724Z,10.10
2022-11-10T22:06:46.848Z,10.20
2022-11-10T22:09:34.708Z,10.20
2022-11-10T22:12:19.960Z,10.20
2022-11-10T22:15:05.394Z,10.10
2022-11-10T22:17:50.881Z,10.10
2022-11-10T22:20:18.856Z,10.40
2022-11-10T22:22:48.037Z,10.10
2022-11-10T22:25:15.970Z,9.90
2022-11-10T22:27:43.780Z,10.20
2022-11-10T22:30:12.092Z,10.00
2022-11-10T22:32:39.921Z,10.00
2022-11-10T22:35:08.484Z,10.20
2022-11-10T22:37:36.312Z,10.00
2022-11-10T22:40:32.125Z,10.00
2022-11-10T22:43:17.529Z,10.00
2022-11-10T22:45:45.941Z,10.00
2022-11-10T22:48:29.750Z,10.00
2022-11-10T22:50:58.380Z,10.00
2022-11-10T22:53:27.431Z,9.90
2022-11-10T22:56:00.293Z,9.90
2022-11-10T22:58:28.138Z,10.80
2022-11-10T23:01:04.997Z,9.90
2022-11-10T23:03:32.933Z,9.90
2022-11-10T23:06:01.122Z,9.90
2022-11-10T23:08:29.137Z,9.90
2022-11-10T23:11:03.610Z,10.00
2022-11-10T23:13:31.731Z,9.80
2022-11-10T23:16:02.339Z,10.80
2022-11-10T23:18:30.809Z,10.40
2022-11-10T23:20:59.736Z,9.80
2022-11-10T23:23:28.087Z,9.80
2022-11-10T23:26:01.706Z,9.70
2022-11-10T23:28:34.093Z,9.80
2022-11-10T23:31:07.081Z,9.70
2022-11-10T23:33:35.326Z,9.70
2022-11-10T23:36:04.657Z,9.70
2022-11-10T23:38:34.607Z,9.60
2022-11-10T23:41:05.033Z,9.80
2022-11-10T23:43:33.273Z,9.60
2022-11-10T23:46:08.514Z,9.60
2022-11-10T23:48:36.716Z,9.60
2022-11-10T23:51:05.366Z,9.60
2022-11-10T23:53:33.580Z,9.60
2022-11-10T23:56:04.413Z,9.60
2022-11-10T23:58:32.976Z,9.60
